createdAt,value
2023-04-29T00:02:17.477Z,36.48
2023-04-29T00:04:45.314Z,36.54
2023-04-29T00:07:15.938Z,36.50
2023-04-29T00:09:43.319Z,36.59
2023-04-29T00:12:11.201Z,36.58
2023-04-29T00:14:38.654Z,36.64
2023-04-29T00:17:06.157Z,36.64
2023-04-29T00:19:33.955Z,36.66
2023-04-29T00:22:01.373Z,36.61
2023-04-29T00:24:28.774Z,36.57
2023-04-29T00:26:56.840Z,36.55
2023-04-29T00:29:24.293Z,36.60
2023-04-29T00:31:51.886Z,36.60
2023-04-29T00:34:19.518Z,36.59
2023-04-29T00:36:46.989Z,36.56
2023-04-29T00:39:15.447Z,36.57
2023-04-29T00:41:44.226Z,36.57
2023-04-29T00:44:12.524Z,36.62
2023-04-29T00:46:40.221Z,36.66
2023-04-29T00:49:08.328Z,36.63
2023-04-29T00:51:36.930Z,36.61
2023-04-29T00:54:04.753Z,36.61
2023-04-29T00:56:34.406Z,36.63
2023-04-29T00:59:02.886Z,36.59
2023-04-29T01:01:30.623Z,36.63
2023-04-29T01:03:58.997Z,36.64
2023-04-29T01:06:51.650Z,36.64
2023-04-29T01:09:29.564Z,36.68
2023-04-29T01:12:18.894Z,36.74
2023-04-29T01:14:49.994Z,36.76
2023-04-29T01:17:18.771Z,36.80
2023-04-29T01:19:51.124Z,36.83
2023-04-29T01:22:21.930Z,36.89
2023-04-29T01:24:49.780Z,36.87
2023-04-29T01:27:30.721Z,36.84
2023-04-29T01:31:06.805Z,36.83
2023-04-29T01:33:42.420Z,36.77
2023-04-29T01:36:22.509Z,36.79
2023-04-29T01:39:16.632Z,36.82
2023-04-29T01:42:08.821Z,36.82
2023-04-29T01:44:36.660Z,36.89
2023-04-29T01:47:04.714Z,36.86
2023-04-29T01:49:35.755Z,36.92
2023-04-29T01:52:03.514Z,36.94
2023-04-29T01:54:32.126Z,36.99
2023-04-29T01:57:00.604Z,37.00
2023-04-29T01:59:30.209Z,36.98
2023-04-29T02:01:59.700Z,37.01
2023-04-29T02:04:28.689Z,37.03
2023-04-29T02:06:56.197Z,37.03
2023-04-29T02:09:24.040Z,37.07
2023-04-29T02:11:52.062Z,37.12
2023-04-29T02:14:19.543Z,37.14
2023-04-29T02:16:47.164Z,37.15
2023-04-29T02:19:15.250Z,37.17
2023-04-29T02:21:43.086Z,37.18
2023-04-29T02:24:10.834Z,37.18
2023-04-29T02:26:38.903Z,37.19
2023-04-29T02:29:06.319Z,37.19
2023-04-29T02:31:33.832Z,37.21
2023-04-29T02:34:01.712Z,37.22
2023-04-29T02:36:29.256Z,37.23
2023-04-29T02:38:57.167Z,37.27
2023-04-29T02:41:25.854Z,37.29
2023-04-29T02:43:53.371Z,37.29
2023-04-29T02:46:21.022Z,37.31
2023-04-29T02:48:48.880Z,37.23
2023-04-29T02:51:16.403Z,37.16
2023-04-29T02:53:44.201Z,37.25
2023-04-29T02:56:12.261Z,37.28
2023-04-29T02:58:39.691Z,37.31
2023-04-29T03:01:07.233Z,37.30
2023-04-29T03:03:35.023Z,37.33
2023-04-29T03:06:02.549Z,37.33
2023-04-29T03:08:30.032Z,37.32
2023-04-29T03:10:57.847Z,37.34
2023-04-29T03:13:25.586Z,37.36
2023-04-29T03:15:53.047Z,37.37
2023-04-29T03:18:21.001Z,37.39
2023-04-29T03:20:48.590Z,37.40
2023-04-29T03:23:16.011Z,37.43
2023-04-29T03:25:43.909Z,37.44
2023-04-29T03:28:11.325Z,37.44
2023-04-29T03:30:38.894Z,37.45
2023-04-29T03:33:07.516Z,37.48
2023-04-29T03:35:35.096Z,37.50
2023-04-29T03:38:06.242Z,37.50
2023-04-29T03:40:34.161Z,37.49
2023-04-29T03:43:01.663Z,37.50
2023-04-29T03:45:29.438Z,37.57
2023-04-29T03:47:57.388Z,37.54
2023-04-29T03:50:26.075Z,37.55
2023-04-29T03:52:53.791Z,37.53
2023-04-29T03:55:21.564Z,37.54
2023-04-29T03:57:48.965Z,37.55
2023-04-29T04:00:17.135Z,37.54
2023-04-29T04:02:45.482Z,37.55
2023-04-29T04:05:13.595Z,37.58
2023-04-29T04:07:41.941Z,37.57
2023-04-29T04:10:13.769Z,37.58
2023-04-29T04:12:43.923Z,37.57
2023-04-29T04:15:12.245Z,37.62
2023-04-29T04:17:39.818Z,37.66
2023-04-29T04:20:08.073Z,37.70
2023-04-29T04:22:36.411Z,37.68
2023-04-29T04:25:05.266Z,37.64
2023-04-29T04:27:32.970Z,37.59
2023-04-29T04:30:01.422Z,37.59
2023-04-29T04:32:29.270Z,37.58
2023-04-29T04:34:57.420Z,37.60
2023-04-29T04:37:25.129Z,37.62
2023-04-29T04:39:53.531Z,37.64
2023-04-29T04:42:22.687Z,37.67
2023-04-29T04:44:50.647Z,37.68
2023-04-29T04:47:19.214Z,37.69
2023-04-29T04:49:47.124Z,37.73
2023-04-29T04:52:14.927Z,37.75
2023-04-29T04:54:46.437Z,37.76
2023-04-29T04:57:14.258Z,37.76
2023-04-29T04:59:43.355Z,37.78
2023-04-29T05:02:13.538Z,37.79
2023-04-29T05:04:41.056Z,37.82
2023-04-29T05:07:09.031Z,37.84
2023-04-29T05:09:37.643Z,37.86
2023-04-29T05:12:05.156Z,37.83
2023-04-29T05:14:34.401Z,37.85
2023-04-29T05:17:02.907Z,37.86
2023-04-29T05:19:30.699Z,37.88
2023-04-29T05:21:58.461Z,37.89
2023-04-29T05:24:26.349Z,37.89
2023-04-29T05:26:54.201Z,37.87
2023-04-29T05:29:21.983Z,37.85
2023-04-29T05:31:50.420Z,37.89
2023-04-29T05:34:18.522Z,37.90
2023-04-29T05:36:46.704Z,37.90
2023-04-29T05:39:15.147Z,37.90
2023-04-29T05:41:43.375Z,37.92
2023-04-29T05:44:11.269Z,37.93
2023-04-29T05:46:38.825Z,37.94
2023-04-29T05:49:06.448Z,37.94
2023-04-29T05:51:34.118Z,37.94
2023-04-29T05:54:01.661Z,37.93
2023-04-29T05:56:29.480Z,37.93
2023-04-29T05:58:57.161Z,37.94
2023-04-29T06:01:24.626Z,37.95
2023-04-29T06:03:52.659Z,37.92
2023-04-29T06:06:22.712Z,37.83
2023-04-29T06:08:51.685Z,37.83
2023-04-29T06:11:19.647Z,37.82
2023-04-29T06:13:47.109Z,37.83
2023-04-29T06:16:15.088Z,37.84
2023-04-29T06:18:42.557Z,37.83
2023-04-29T06:21:12.085Z,37.86
2023-04-29T06:23:39.825Z,37.84
2023-04-29T06:26:07.516Z,37.88
2023-04-29T06:28:35.004Z,37.88
2023-04-29T06:31:02.992Z,37.87
2023-04-29T06:33:31.212Z,37.84
2023-04-29T06:35:58.694Z,37.89
2023-04-29T06:38:28.334Z,37.91
2023-04-29T06:41:00.557Z,37.86
2023-04-29T06:43:28.575Z,37.86
2023-04-29T06:45:56.181Z,37.91
2023-04-29T06:48:24.019Z,37.92
2023-04-29T06:50:52.722Z,37.86
2023-04-29T06:53:20.311Z,37.90
2023-04-29T06:55:47.981Z,37.87
2023-04-29T06:58:16.363Z,37.88
2023-04-29T07:00:48.260Z,38.02
2023-04-29T07:03:16.453Z,38.11
2023-04-29T07:05:45.564Z,38.07
2023-04-29T07:08:13.371Z,37.94
2023-04-29T07:10:41.697Z,37.85
2023-04-29T07:13:09.232Z,37.73
2023-04-29T07:15:36.770Z,36.93
2023-04-29T07:18:05.480Z,36.51
2023-04-29T07:20:33.176Z,37.39
2023-04-29T07:23:00.973Z,37.78
2023-04-29T07:25:29.892Z,38.00
2023-04-29T07:27:57.780Z,38.08
2023-04-29T07:30:25.743Z,38.09
2023-04-29T07:32:53.627Z,38.09
2023-04-29T07:35:21.635Z,38.05
2023-04-29T07:37:49.202Z,38.03
2023-04-29T07:40:16.986Z,38.08
2023-04-29T07:42:44.439Z,38.12
2023-04-29T07:45:13.929Z,38.05
2023-04-29T07:47:41.903Z,37.99
2023-04-29T07:50:09.687Z,37.98
2023-04-29T07:52:39.286Z,38.06
2023-04-29T07:55:07.109Z,37.94
2023-04-29T07:57:34.538Z,38.13
2023-04-29T08:00:02.372Z,38.19
2023-04-29T08:02:30.885Z,38.27
2023-04-29T08:04:59.156Z,38.33
2023-04-29T08:07:26.953Z,38.31
2023-04-29T08:09:54.512Z,38.36
2023-04-29T08:12:22.261Z,38.53
2023-04-29T08:14:49.692Z,38.64
2023-04-29T08:17:17.123Z,38.84
2023-04-29T08:19:44.847Z,38.95
2023-04-29T08:22:14.138Z,39.12
2023-04-29T08:24:42.870Z,39.24
2023-04-29T08:27:10.770Z,39.29
2023-04-29T08:29:38.330Z,39.37
2023-04-29T08:32:06.099Z,39.39
2023-04-29T08:34:36.142Z,39.31
2023-04-29T08:37:03.596Z,39.29
2023-04-29T08:39:31.276Z,39.22
2023-04-29T08:41:59.940Z,39.06
2023-04-29T08:44:27.952Z,38.86
2023-04-29T08:46:55.623Z,38.64
2023-04-29T08:49:23.322Z,38.42
2023-04-29T08:51:51.788Z,38.27
2023-04-29T08:54:19.223Z,38.14
2023-04-29T08:56:49.743Z,38.03
2023-04-29T08:59:17.510Z,37.96
2023-04-29T09:01:49.667Z,37.90
2023-04-29T09:04:36.031Z,37.83
2023-04-29T09:07:03.480Z,37.73
2023-04-29T09:09:31.240Z,37.50
2023-04-29T09:11:59.057Z,37.25
2023-04-29T09:14:26.624Z,37.06
2023-04-29T09:16:54.327Z,36.97
2023-04-29T09:19:32.183Z,36.86
2023-04-29T09:22:00.413Z,36.81
2023-04-29T09:24:28.527Z,36.76
2023-04-29T09:26:56.082Z,36.69
2023-04-29T09:29:24.102Z,36.65
2023-04-29T09:31:54.394Z,36.59
2023-04-29T09:34:52.967Z,36.57
2023-04-29T09:37:27.985Z,36.55
2023-04-29T09:39:55.566Z,36.48
2023-04-29T09:42:23.267Z,36.52
2023-04-29T09:44:52.328Z,36.63
2023-04-29T09:47:20.376Z,36.66
2023-04-29T09:49:50.067Z,36.79
2023-04-29T09:52:18.247Z,36.82
2023-04-29T09:54:45.776Z,36.81
2023-04-29T09:57:16.470Z,36.90
2023-04-29T09:59:44.039Z,36.90
2023-04-29T10:02:16.661Z,36.88
2023-04-29T10:04:48.686Z,36.95
2023-04-29T10:07:17.032Z,36.94
2023-04-29T10:09:46.727Z,36.92
2023-04-29T10:12:18.491Z,36.92
2023-04-29T10:15:06.832Z,36.89
2023-04-29T10:17:40.518Z,36.83
2023-04-29T10:20:09.083Z,36.77
2023-04-29T10:22:45.888Z,36.80
2023-04-29T10:25:15.271Z,36.84
2023-04-29T10:27:44.355Z,36.87
2023-04-29T10:30:13.481Z,36.90
2023-04-29T10:35:20.102Z,36.93
2023-04-29T10:37:48.845Z,37.13
2023-04-29T10:40:28.045Z,37.21
2023-04-29T10:42:55.838Z,37.28
2023-04-29T10:45:32.611Z,37.30
2023-04-29T10:48:03.194Z,37.37
2023-04-29T10:50:31.507Z,37.46
2023-04-29T10:53:01.857Z,37.52
2023-04-29T10:55:29.656Z,37.59
2023-04-29T10:57:57.329Z,37.64
2023-04-29T11:00:29.110Z,37.71
2023-04-29T11:02:57.368Z,37.72
2023-04-29T11:05:35.655Z,37.71
2023-04-29T11:08:23.194Z,37.75
2023-04-29T11:10:54.028Z,37.69
2023-04-29T11:13:28.743Z,37.74
2023-04-29T11:16:08.231Z,37.79
2023-04-29T11:18:36.896Z,37.84
2023-04-29T11:21:07.319Z,37.84
2023-04-29T11:23:35.659Z,37.96
2023-04-29T11:26:03.571Z,38.03
2023-04-29T11:28:31.653Z,38.08
2023-04-29T11:30:59.276Z,38.09
2023-04-29T11:33:27.883Z,38.14
2023-04-29T11:39:00.435Z,38.19
2023-04-29T11:41:28.377Z,38.30
2023-04-29T11:43:59.725Z,38.29
2023-04-29T11:46:30.216Z,38.36
2023-04-29T11:48:58.434Z,38.37
2023-04-29T11:51:25.898Z,38.35
2023-04-29T11:53:53.364Z,38.38
2023-04-29T11:56:25.433Z,38.38
2023-04-29T11:59:01.315Z,38.30
2023-04-29T12:01:29.020Z,38.30
2023-04-29T12:04:00.818Z,38.28
2023-04-29T12:06:30.128Z,38.31
2023-04-29T12:09:01.704Z,38.29
2023-04-29T12:11:29.228Z,38.30
2023-04-29T12:13:57.416Z,38.29
2023-04-29T12:16:25.773Z,38.26
2023-04-29T12:18:53.507Z,38.29
2023-04-29T21:02:52.883Z,36.89
2023-04-29T21:05:21.018Z,36.92
2023-04-29T21:07:49.347Z,36.91
2023-04-29T21:10:17.897Z,36.89
2023-04-29T21:12:45.656Z,36.84
2023-04-29T21:15:13.138Z,36.85
2023-04-29T21:17:40.593Z,36.79
2023-04-29T21:20:08.766Z,36.79
2023-04-29T21:22:36.189Z,36.76
2023-04-29T21:25:05.312Z,36.77
2023-04-29T21:27:32.947Z,36.77
2023-04-29T21:30:00.387Z,36.75
2023-04-29T21:32:27.879Z,36.77
2023-04-29T21:34:55.591Z,36.79
2023-04-29T21:37:23.130Z,36.82
2023-04-29T21:39:50.888Z,36.83
2023-04-29T21:42:22.415Z,36.86
2023-04-29T21:44:49.832Z,36.85
2023-04-29T21:47:17.251Z,36.88
2023-04-29T21:49:44.956Z,36.93
2023-04-29T21:52:12.818Z,36.95
2023-04-29T21:54:40.253Z,36.98
2023-04-29T21:57:08.041Z,37.02
2023-04-29T21:59:35.653Z,37.05
2023-04-29T22:02:14.149Z,37.02
2023-04-29T22:04:42.001Z,37.03
2023-04-29T22:07:09.420Z,37.03
2023-04-29T22:09:36.891Z,37.05
2023-04-29T22:12:04.640Z,37.04
2023-04-29T22:14:32.062Z,37.05
2023-04-29T22:16:59.476Z,37.06
2023-04-29T22:19:30.058Z,37.07
2023-04-29T22:21:57.521Z,37.09
2023-04-29T22:24:24.954Z,37.13
2023-04-29T22:26:52.650Z,37.14
2023-04-29T22:29:20.894Z,37.14
2023-04-29T22:31:48.312Z,37.14
2023-04-29T22:34:16.025Z,37.14
2023-04-29T22:36:43.392Z,37.16
2023-04-29T22:39:10.791Z,37.17
2023-04-29T22:41:38.515Z,37.18
2023-04-29T22:44:05.951Z,37.21
2023-04-29T22:46:33.607Z,37.23
2023-04-29T22:49:01.439Z,37.23
2023-04-29T22:51:28.855Z,37.28
2023-04-29T22:53:56.268Z,37.30
2023-04-29T22:56:24.634Z,37.29
2023-04-29T22:58:52.113Z,37.28
2023-04-29T23:01:19.561Z,37.27
2023-04-29T23:03:47.199Z,37.29
2023-04-29T23:06:14.660Z,37.30
2023-04-29T23:08:42.321Z,37.30
2023-04-29T23:11:10.832Z,37.32
2023-04-29T23:13:38.225Z,37.33
2023-04-29T23:16:06.694Z,37.36
2023-04-29T23:18:35.672Z,37.38
2023-04-29T23:21:03.606Z,37.36
2023-04-29T23:23:31.004Z,37.39
2023-04-29T23:25:58.736Z,37.41
2023-04-29T23:28:26.187Z,37.43
2023-04-29T23:30:54.532Z,37.45
2023-04-29T23:33:22.323Z,37.46
2023-04-29T23:35:50.704Z,37.50
2023-04-29T23:38:18.771Z,37.53
2023-04-29T23:40:46.731Z,37.54
2023-04-29T23:43:17.271Z,37.55
2023-04-29T23:45:45.860Z,37.54
2023-04-29T23:48:13.992Z,37.54
2023-04-29T23:50:41.468Z,37.60
2023-04-29T23:53:08.904Z,37.64
2023-04-29T23:55:36.618Z,37.66
2023-04-29T23:58:04.101Z,37.68
